createdAt,value
2023-04-17T00:01:37.934Z,51.47
2023-04-17T00:06:43.278Z,47.03
2023-04-17T00:11:47.137Z,45.80
2023-04-17T00:16:52.493Z,45.95
2023-04-17T00:21:56.274Z,43.53
2023-04-17T00:27:01.373Z,49.78
2023-04-17T00:32:06.866Z,45.30
2023-04-17T00:37:10.779Z,41.25
2023-04-17T00:42:14.482Z,44.30
2023-04-17T00:47:22.341Z,46.70
2023-04-17T00:52:29.745Z,40.65
2023-04-17T00:57:34.349Z,43.60
2023-04-17T01:02:39.624Z,41.08
2023-04-17T01:07:43.837Z,49.67
2023-04-17T01:12:49.316Z,45.70
2023-04-17T01:17:54.848Z,43.97
2023-04-17T01:22:59.241Z,35.33
2023-04-17T01:28:04.779Z,43.00
2023-04-17T01:33:08.618Z,42.53
2023-04-17T01:38:13.067Z,39.45
2023-04-17T01:43:19.563Z,40.33
2023-04-17T01:48:23.258Z,40.12
2023-04-17T01:53:27.313Z,49.05
2023-04-17T01:58:32.342Z,47.55
2023-04-17T02:03:36.499Z,47.40
2023-04-17T02:08:40.305Z,45.40
2023-04-17T02:13:45.456Z,48.08
2023-04-17T02:18:49.482Z,42.22
2023-04-17T02:23:53.211Z,38.45
2023-04-17T02:28:58.412Z,43.00
2023-04-17T02:34:02.105Z,42.75
2023-04-17T02:39:06.658Z,42.90
2023-04-17T02:44:11.837Z,43.40
2023-04-17T02:49:15.569Z,43.00
2023-04-17T02:54:19.340Z,46.25
2023-04-17T02:59:25.100Z,39.45
2023-04-17T03:04:29.009Z,42.13
2023-04-17T03:09:32.680Z,48.60
2023-04-17T03:14:37.825Z,43.17
2023-04-17T03:19:41.609Z,43.65
2023-04-17T03:24:45.542Z,31.83
2023-04-17T03:29:51.755Z,37.20
2023-04-17T03:34:56.010Z,28.80
2023-04-17T03:39:59.718Z,29.50
2023-04-17T03:45:05.664Z,31.50
2023-04-17T03:50:10.283Z,31.40
2023-04-17T03:55:15.986Z,33.83
2023-04-17T04:00:22.127Z,37.08
2023-04-17T04:05:26.194Z,38.35
2023-04-17T04:10:30.693Z,36.47
2023-04-17T04:15:35.862Z,33.58
2023-04-17T04:20:42.097Z,35.85
2023-04-17T04:25:46.639Z,38.13
2023-04-17T04:30:55.162Z,35.45
2023-04-17T04:36:02.049Z,37.90
2023-04-17T04:41:10.063Z,40.53
2023-04-17T04:46:16.428Z,41.42
2023-04-17T04:51:20.869Z,43.10
2023-04-17T04:56:25.895Z,43.92
2023-04-17T05:01:32.149Z,45.63
2023-04-17T05:06:36.108Z,46.35
2023-04-17T05:11:40.280Z,47.25
2023-04-17T05:16:45.660Z,42.20
2023-04-17T05:21:49.806Z,44.03
2023-04-17T05:26:54.488Z,39.75
2023-04-17T05:31:59.988Z,41.35
2023-04-17T05:37:07.147Z,43.80
2023-04-17T05:42:10.861Z,39.30
2023-04-17T05:47:16.726Z,45.17
2023-04-17T05:52:20.780Z,33.88
2023-04-17T05:57:25.172Z,33.92
2023-04-17T06:02:30.848Z,36.25
2023-04-17T06:07:35.101Z,39.42
2023-04-17T06:12:39.483Z,38.65
2023-04-17T06:17:45.102Z,38.58
2023-04-17T06:22:49.555Z,41.50
2023-04-17T06:27:53.323Z,42.28
2023-04-17T06:32:58.777Z,44.00
2023-04-17T06:38:02.911Z,50.70
2023-04-17T06:43:07.443Z,45.58
2023-04-17T06:48:15.404Z,47.88
2023-04-17T06:53:19.292Z,54.65
2023-04-17T06:58:23.116Z,49.47
2023-04-17T07:03:28.458Z,45.35
2023-04-17T07:08:32.392Z,45.15
2023-04-17T07:13:36.407Z,45.83
2023-04-17T07:18:41.723Z,38.90
2023-04-17T07:23:45.841Z,42.50
2023-04-17T07:28:49.646Z,39.70
2023-04-17T07:33:55.058Z,43.95
2023-04-17T07:38:58.910Z,39.55
2023-04-17T07:44:05.339Z,40.78
2023-04-17T07:49:12.190Z,42.15
2023-04-17T07:54:16.257Z,47.00
2023-04-17T07:59:19.957Z,45.85
2023-04-17T08:04:25.978Z,42.60
2023-04-17T08:09:29.998Z,45.65
2023-04-17T08:14:34.128Z,44.75
2023-04-17T08:19:39.162Z,49.25
2023-04-17T08:24:43.214Z,46.50
2023-04-17T08:29:46.927Z,51.25
2023-04-17T08:34:52.612Z,49.38
2023-04-17T08:39:56.476Z,49.33
2023-04-17T08:45:01.052Z,41.85
2023-04-17T08:50:11.526Z,44.63
2023-04-17T08:55:17.292Z,38.83
2023-04-17T09:00:25.694Z,46.03
2023-04-17T09:10:38.072Z,42.40
2023-04-17T09:15:43.149Z,50.12
2023-04-17T09:20:51.509Z,42.80
2023-04-17T09:31:26.831Z,38.83
2023-04-17T09:36:33.249Z,40.03
2023-04-17T09:41:39.419Z,35.45
2023-04-17T09:46:45.723Z,36.85
2023-04-17T09:51:52.392Z,38.67
2023-04-17T09:56:56.345Z,36.35
2023-04-17T10:02:01.952Z,42.05
2023-04-17T10:07:07.126Z,31.35
2023-04-17T10:12:14.554Z,33.17
2023-04-17T10:17:25.500Z,30.87
2023-04-17T10:22:34.817Z,32.50
2023-04-17T10:27:45.480Z,28.75
2023-04-17T10:33:28.264Z,32.78
2023-04-17T10:38:35.220Z,30.65
2023-04-17T10:43:43.208Z,30.05
2023-04-17T10:48:52.596Z,24.23
2023-04-17T10:53:58.984Z,26.55
2023-04-17T10:59:04.564Z,31.20
2023-04-17T11:04:09.405Z,27.25
2023-04-17T11:09:16.060Z,25.20
2023-04-17T11:14:21.524Z,27.05
2023-04-17T11:19:26.605Z,27.77
2023-04-17T11:24:33.112Z,23.35
2023-04-17T11:29:36.843Z,27.02
2023-04-17T11:34:41.183Z,26.30
2023-04-17T11:39:46.526Z,21.08
2023-04-17T11:44:50.348Z,23.92
2023-04-17T11:49:54.049Z,23.17
2023-04-17T11:54:59.831Z,22.70
2023-04-17T12:00:14.028Z,21.87
2023-04-17T12:05:18.592Z,25.83
2023-04-17T12:10:23.805Z,27.42
2023-04-17T12:15:27.876Z,26.17
2023-04-17T12:20:31.620Z,25.60
2023-04-17T12:25:37.135Z,26.58
2023-04-17T12:30:42.681Z,27.95
2023-04-17T12:35:46.482Z,26.25
2023-04-17T12:40:51.485Z,23.52
2023-04-17T12:45:55.306Z,22.62
2023-04-17T12:50:59.065Z,22.45
2023-04-17T12:56:04.430Z,21.37
2023-04-17T13:01:08.182Z,20.75
2023-04-17T13:06:12.327Z,22.48
2023-04-17T13:11:17.450Z,24.92
2023-04-17T13:16:21.415Z,24.98
2023-04-17T13:21:25.280Z,19.00
2023-04-17T13:26:30.602Z,22.40
2023-04-17T13:31:34.334Z,29.30
2023-04-17T13:36:38.167Z,20.83
2023-04-17T13:41:43.225Z,16.45
2023-04-17T13:46:47.155Z,15.38
2023-04-17T13:51:50.922Z,20.33
2023-04-17T13:56:57.370Z,16.80
2023-04-17T14:02:03.912Z,17.05
2023-04-17T14:07:07.848Z,13.02
2023-04-17T14:12:16.746Z,19.55
2023-04-17T14:17:20.620Z,20.50
2023-04-17T14:22:24.373Z,15.73
2023-04-17T14:27:29.569Z,13.38
2023-04-17T14:32:33.309Z,13.90
2023-04-17T14:37:37.156Z,9.48
2023-04-17T14:42:53.521Z,9.45
2023-04-17T14:47:58.928Z,9.02
2023-04-17T14:53:03.500Z,11.40
2023-04-17T14:58:08.558Z,11.02
2023-04-17T15:03:12.473Z,10.25
2023-04-17T15:08:16.291Z,11.48
2023-04-17T15:13:21.479Z,8.23
2023-04-17T15:18:25.460Z,9.07
2023-04-17T15:23:29.905Z,9.05
2023-04-17T15:28:36.997Z,10.15
2023-04-17T15:33:40.787Z,11.80
2023-04-17T15:38:44.660Z,9.48
2023-04-17T15:43:49.712Z,9.90
2023-04-17T15:49:07.516Z,7.18
2023-04-17T15:54:12.899Z,13.43
2023-04-17T15:59:18.068Z,13.15
2023-04-17T16:04:22.182Z,13.27
2023-04-17T16:09:26.226Z,10.70
2023-04-17T16:14:31.586Z,9.43
2023-04-17T16:19:35.621Z,10.10
2023-04-17T16:24:39.350Z,7.57
2023-04-17T16:29:45.776Z,8.77
2023-04-17T16:34:49.835Z,8.43
2023-04-17T16:39:54.007Z,7.60
2023-04-17T16:44:59.328Z,10.40
2023-04-17T16:50:03.715Z,7.87
2023-04-17T16:55:08.616Z,8.95
2023-04-17T17:00:15.343Z,17.62
2023-04-17T17:05:19.204Z,12.65
2023-04-17T17:10:22.948Z,9.10
2023-04-17T17:15:27.973Z,11.38
2023-04-17T17:20:31.726Z,9.10
2023-04-17T17:25:35.409Z,10.45
2023-04-17T17:30:40.629Z,12.85
2023-04-17T17:35:44.384Z,12.40
2023-04-17T17:40:48.100Z,10.10
2023-04-17T17:45:53.600Z,16.55
2023-04-17T17:50:58.157Z,13.38
2023-04-17T17:56:02.621Z,14.48
2023-04-17T18:01:08.020Z,14.00
2023-04-17T18:06:11.994Z,20.45
2023-04-17T18:11:15.796Z,16.12
2023-04-17T18:16:21.499Z,15.80
2023-04-17T18:21:26.031Z,21.87
2023-04-17T18:26:29.749Z,21.45
2023-04-17T18:31:34.941Z,17.70
2023-04-17T18:36:38.725Z,18.00
2023-04-17T18:41:42.393Z,16.62
2023-04-17T18:46:48.391Z,17.45
2023-04-17T18:51:52.262Z,18.98
2023-04-17T18:56:56.436Z,15.95
2023-04-17T19:02:01.535Z,15.23
2023-04-17T19:07:05.420Z,19.95
2023-04-17T19:12:10.047Z,21.80
2023-04-17T19:17:15.954Z,17.52
2023-04-17T19:22:19.948Z,16.98
2023-04-17T19:27:25.228Z,17.77
2023-04-17T19:32:31.990Z,17.60
2023-04-17T19:37:35.802Z,20.52
2023-04-17T19:42:39.532Z,21.45
2023-04-17T19:47:44.647Z,19.90
2023-04-17T19:52:48.590Z,20.75
2023-04-17T19:57:52.898Z,21.05
2023-04-17T20:02:58.308Z,20.70
2023-04-17T20:08:02.699Z,23.42
2023-04-17T20:13:06.758Z,19.92
2023-04-17T20:18:13.014Z,20.90
2023-04-17T20:23:17.121Z,18.52
2023-04-17T20:28:21.386Z,22.83
2023-04-17T20:33:26.854Z,25.42
2023-04-17T20:38:30.908Z,19.35
2023-04-17T20:43:34.907Z,20.02
2023-04-17T20:48:40.164Z,19.60
2023-04-17T20:53:44.242Z,27.10
2023-04-17T20:58:48.393Z,24.23
2023-04-17T21:03:53.949Z,21.73
2023-04-17T21:08:58.073Z,21.92
2023-04-17T21:14:03.565Z,24.25
2023-04-17T21:19:08.624Z,20.95
2023-04-17T21:24:12.610Z,22.55
2023-04-17T21:29:16.591Z,20.33
2023-04-17T21:34:21.897Z,22.13
2023-04-17T21:39:25.627Z,22.08
2023-04-17T21:44:29.631Z,21.27
2023-04-17T21:49:34.836Z,19.35
2023-04-17T21:54:38.915Z,24.20
2023-04-17T21:59:42.587Z,21.87
2023-04-17T22:04:47.749Z,21.12
2023-04-17T22:09:51.495Z,25.17
2023-04-17T22:14:55.218Z,19.30
2023-04-17T22:20:00.270Z,23.23
2023-04-17T22:25:04.347Z,27.17
2023-04-17T22:30:08.877Z,25.50
2023-04-17T22:35:15.202Z,23.20
2023-04-17T22:40:19.114Z,21.87
2023-04-17T22:45:22.834Z,25.73
2023-04-17T22:50:30.540Z,26.98
2023-04-17T22:55:34.658Z,26.60
2023-04-17T23:00:38.338Z,25.42
2023-04-17T23:05:43.662Z,23.62
2023-04-17T23:10:47.443Z,28.00
2023-04-17T23:15:51.961Z,23.50
2023-04-17T23:20:56.992Z,25.98
2023-04-17T23:26:00.708Z,25.05
2023-04-17T23:31:05.837Z,26.92
2023-04-17T23:36:11.281Z,24.48
2023-04-17T23:41:15.012Z,23.52
2023-04-17T23:46:18.785Z,23.00
2023-04-17T23:51:23.839Z,25.83
2023-04-17T23:56:29.544Z,30.00
